Time;durP1;ratioP1;P1;durP2;ratioP2;P2;SDS_P1;SDS_P2;PMS_P1;PMS_P2;Temp;Humidity;BMP_temperature;BMP_pressure;BME280_temperature;BME280_humidity;BME280_pressure;Samples;Min_cycle;Max_cycle;Signal;HPM_P1;HPM_P2
2022/09/09 00:02:10;;;;;;;10.65;1.90;;;17.80;99.90;;;16.21;100.00;99800.03;10291290;28;96598;-80
2022/09/09 00:07:37;;;;;;;1.33;1.00;;;17.80;99.90;;;16.18;100.00;99794.25;10295102;28;96885;-80
2022/09/09 00:12:55;;;;;;;1.40;1.10;;;17.70;99.90;;;16.11;100.00;99796.97;10277890;28;98466;-83
2022/09/09 00:18:32;;;;;;;6.78;1.65;;;17.60;99.90;;;16.06;100.00;99796.78;10304312;28;96587;-83
2022/09/09 00:23:49;;;;;;;2.85;1.48;;;17.60;99.90;;;16.04;100.00;99796.19;10293122;28;97609;-83
2022/09/09 00:28:56;;;;;;;1.65;1.00;;;17.60;99.90;;;16.03;100.00;99787.31;10294248;28;98458;-84
2022/09/09 00:34:24;;;;;;;1.13;1.02;;;17.60;99.90;;;16.03;100.00;99789.19;10290633;28;97556;-83
2022/09/09 00:39:41;;;;;;;6.25;1.58;;;17.60;99.90;;;16.06;100.00;99792.25;10288779;28;98209;-81
2022/09/09 00:45:23;;;;;;;2.60;1.58;;;17.60;99.90;;;16.05;100.00;99793.28;10287233;28;97346;-82
2022/09/09 00:50:35;;;;;;;10.10;2.55;;;17.70;99.90;;;16.08;100.00;99810.81;10308385;28;96787;-82
2022/09/09 00:55:53;;;;;;;2.92;1.35;;;17.70;99.90;;;16.07;100.00;99814.50;10274494;28;99677;-82
2022/09/09 01:01:12;;;;;;;1.75;1.30;;;17.60;99.90;;;16.03;100.00;99803.41;10284542;28;97894;-81
2022/09/09 01:06:39;;;;;;;1.73;1.20;;;17.60;99.90;;;16.01;100.00;99810.84;10289981;28;96660;-82
2022/09/09 01:12:17;;;;;;;2.15;1.30;;;17.60;99.90;;;16.04;100.00;99814.94;10293250;28;98438;-82
2022/09/09 01:17:53;;;;;;;2.05;1.67;;;17.60;99.90;;;16.02;100.00;99817.84;10276695;28;96544;-83
2022/09/09 01:23:20;;;;;;;1.95;1.23;;;17.50;99.90;;;16.00;100.00;99822.56;10303538;28;97412;-83
2022/09/09 01:28:28;;;;;;;1.85;1.13;;;17.50;99.90;;;15.99;100.00;99809.38;10284520;28;98216;-83
2022/09/09 01:33:31;;;;;;;1.98;0.90;;;17.50;99.90;;;16.00;100.00;99814.53;10305638;28;96648;-84
2022/09/09 01:38:35;;;;;;;1.45;0.80;;;17.50;99.90;;;16.02;100.00;99809.81;10280598;28;97474;-84
2022/09/09 01:43:38;;;;;;;1.02;0.75;;;17.50;99.90;;;16.07;100.00;99814.50;10303349;28;96658;-83
2022/09/09 01:48:42;;;;;;;1.40;0.70;;;17.60;99.90;;;16.08;100.00;99810.81;10286792;28;96901;-83
2022/09/09 01:53:46;;;;;;;1.55;0.73;;;17.60;99.90;;;16.10;100.00;99810.59;10272206;28;96932;-84
2022/09/09 01:58:52;;;;;;;3.00;1.00;;;17.60;99.90;;;16.05;100.00;99809.34;10289642;28;97397;-83
2022/09/09 02:03:59;;;;;;;1.27;1.10;;;17.60;99.90;;;16.02;100.00;99811.66;10288236;28;96807;-83
2022/09/09 02:09:06;;;;;;;1.05;0.88;;;17.50;99.90;;;15.99;100.00;99812.88;10268345;28;98261;-81
2022/09/09 02:14:21;;;;;;;2.20;0.93;;;17.50;99.90;;;15.95;100.00;99821.56;10281641;28;97513;-82
2022/09/09 02:19:32;;;;;;;1.23;0.95;;;17.50;99.90;;;15.93;100.00;99834.34;10308472;28;98055;-81
2022/09/09 02:24:38;;;;;;;1.03;0.90;;;17.50;99.90;;;15.94;100.00;99842.19;10305667;28;96701;-81
2022/09/09 02:29:44;;;;;;;3.80;1.10;;;17.50;99.90;;;15.92;100.00;99825.50;10281324;28;96637;-81
2022/09/09 02:35:02;;;;;;;16.83;1.40;;;17.50;99.90;;;15.91;100.00;99826.53;10281883;28;97182;-80
2022/09/09 02:40:11;;;;;;;8.82;1.77;;;17.50;99.90;;;15.91;100.00;99833.75;10283227;28;96615;-81
2022/09/09 02:45:21;;;;;;;3.17;1.03;;;17.50;99.90;;;15.90;100.00;99840.16;10290539;28;96949;-80
2022/09/09 02:50:37;;;;;;;3.37;0.90;;;17.50;99.90;;;15.86;100.00;99833.56;10296398;28;96723;-80
2022/09/09 02:55:49;;;;;;;1.80;1.00;;;17.50;99.90;;;15.84;100.00;99830.28;10278521;28;96826;-80
2022/09/09 03:00:52;;;;;;;2.03;0.70;;;17.50;99.90;;;15.79;100.00;99830.91;10288973;28;98425;-81
2022/09/09 03:05:56;;;;;;;0.88;0.70;;;17.40;99.90;;;15.81;100.00;99836.03;10302587;28;96681;-81
2022/09/09 03:11:03;;;;;;;10.18;0.70;;;17.40;99.90;;;15.82;100.00;99821.59;10294508;28;98313;-81
2022/09/09 03:16:06;;;;;;;0.75;0.45;;;17.40;99.90;;;15.81;100.00;99820.78;10287993;28;96724;-82
2022/09/09 03:21:09;;;;;;;0.30;0.30;;;17.40;99.90;;;15.83;100.00;99825.94;10306499;28;97061;-82
2022/09/09 03:26:14;;;;;;;0.40;0.30;;;17.40;99.90;;;15.85;100.00;99827.38;10285452;28;98346;-82
2022/09/09 03:31:19;;;;;;;0.25;0.17;;;17.40;99.90;;;15.91;100.00;99831.06;10290096;28;97118;-82
2022/09/09 03:36:22;;;;;;;0.10;0.10;;;17.50;99.90;;;15.98;100.00;99821.97;10309969;28;98125;-81
2022/09/09 03:41:26;;;;;;;0.20;0.20;;;17.60;99.90;;;16.08;99.48;99834.13;10278837;28;98224;-82
2022/09/09 03:46:28;;;;;;;0.10;0.10;;;17.70;99.90;;;16.11;98.49;99837.16;10276825;28;96886;-81
2022/09/09 03:51:31;;;;;;;0.38;0.20;;;17.70;99.90;;;16.14;97.42;99830.59;10304922;28;97377;-82
2022/09/09 03:56:35;;;;;;;0.20;0.20;;;17.80;99.90;;;16.17;97.40;99843.53;10280826;28;98102;-81
2022/09/09 04:01:38;;;;;;;0.13;0.10;;;17.80;99.90;;;16.15;97.10;99846.44;10286738;28;96665;-80
2022/09/09 04:06:40;;;;;;;0.20;0.17;;;17.80;99.90;;;16.11;97.04;99837.16;10305101;28;96699;-82
2022/09/09 04:11:43;;;;;;;0.20;0.10;;;17.80;99.90;;;16.08;97.05;99837.63;10294620;28;96521;-86
2022/09/09 04:16:46;;;;;;;0.30;0.30;;;17.70;99.90;;;16.03;97.21;99840.91;10293250;28;96395;-81
2022/09/09 04:21:51;;;;;;;0.52;0.38;;;17.70;99.90;;;16.01;97.25;99851.03;10302874;28;98391;-82
2022/09/09 04:26:53;;;;;;;0.10;0.10;;;17.70;99.90;;;15.99;97.30;99854.94;10284000;28;96548;-82
2022/09/09 04:31:56;;;;;;;0.20;0.20;;;17.70;99.90;;;15.98;97.60;99856.00;10315609;28;96794;-83
2022/09/09 04:37:01;;;;;;;0.20;0.20;;;17.70;99.90;;;15.98;97.64;99850.63;10293455;28;97549;-83
2022/09/09 04:42:04;;;;;;;0.43;0.20;;;17.60;99.90;;;15.99;98.03;99850.41;10290927;28;96788;-83
2022/09/09 04:47:06;;;;;;;0.77;0.47;;;17.70;99.90;;;16.05;98.12;99854.09;10293146;28;98200;-83
2022/09/09 04:52:09;;;;;;;0.45;0.40;;;17.70;99.90;;;16.08;98.51;99853.69;10276727;28;97754;-83
2022/09/09 04:57:12;;;;;;;0.25;0.20;;;17.80;99.90;;;16.11;98.59;99849.75;10271909;28;97917;-82
2022/09/09 05:02:20;;;;;;;0.50;0.40;;;17.80;99.90;;;16.13;98.82;99861.91;10289648;28;96553;-82
2022/09/09 05:07:23;;;;;;;1.08;0.52;;;17.80;99.90;;;16.15;99.56;99861.72;10275062;28;96610;-83
2022/09/09 05:12:26;;;;;;;0.47;0.40;;;17.90;99.90;;;16.17;99.79;99871.16;10307468;28;96751;-82
2022/09/09 05:17:29;;;;;;;0.85;0.35;;;17.90;99.90;;;16.22;99.85;99882.09;10272949;28;98293;-83
2022/09/09 05:22:31;;;;;;;0.25;0.15;;;18.00;99.90;;;16.28;100.00;99869.69;10305895;28;97520;-83
2022/09/09 05:27:35;;;;;;;0.65;0.30;;;18.00;99.90;;;16.32;100.00;99878.97;10290134;28;96614;-83
2022/09/09 05:32:38;;;;;;;0.70;0.20;;;18.00;99.90;;;16.40;100.00;99883.25;10268795;28;97337;-82
2022/09/09 05:37:40;;;;;;;0.38;0.30;;;18.10;99.90;;;16.46;100.00;99872.50;10277973;28;96878;-83
2022/09/09 05:42:43;;;;;;;0.30;0.22;;;18.20;99.90;;;16.54;100.00;99856.13;10294815;28;96571;-82
2022/09/09 05:47:55;;;;;;;0.28;0.20;;;18.20;99.90;;;16.64;100.00;99874.47;10306428;28;96585;-83
2022/09/09 05:52:57;;;;;;;0.50;0.30;;;18.40;99.90;;;16.74;100.00;99858.75;10276093;28;96636;-82
2022/09/09 05:58:01;;;;;;;0.43;0.28;;;18.50;99.90;;;16.87;100.00;99867.75;10292525;28;96532;-84
2022/09/09 06:03:04;;;;;;;1.00;0.52;;;18.60;99.90;;;17.01;100.00;99862.06;10254225;28;96560;-84
2022/09/09 06:08:07;;;;;;;0.47;0.25;;;18.70;99.90;;;17.14;100.00;99869.19;10300653;28;96487;-84
2022/09/09 06:13:09;;;;;;;0.52;0.20;;;18.90;99.90;;;17.30;100.00;99871.34;10292770;28;96623;-84
2022/09/09 06:18:12;;;;;;;0.20;0.20;;;19.10;99.90;;;17.45;100.00;99865.63;10292065;28;96581;-83
2022/09/09 06:23:16;;;;;;;0.45;0.30;;;19.20;99.90;;;17.56;100.00;99864.91;10290948;28;98294;-83
2022/09/09 06:28:19;;;;;;;0.65;0.30;;;19.30;99.90;;;17.66;99.46;99880.50;10306313;28;96552;-83
2022/09/09 06:33:21;;;;;;;0.47;0.30;;;19.40;99.90;;;17.73;98.59;99880.47;10290533;28;97452;-83
2022/09/09 06:38:25;;;;;;;0.10;0.10;;;19.60;99.90;;;17.82;97.43;99881.84;10267034;28;97241;-83
2022/09/09 06:43:28;;;;;;;0.22;0.20;;;19.60;99.90;;;17.89;96.17;99886.09;10289707;28;98084;-83
2022/09/09 06:48:34;;;;;;;0.47;0.30;;;19.70;99.90;;;18.02;96.12;99885.13;10290938;28;96446;-83
2022/09/09 06:53:39;;;;;;;1.45;0.30;;;19.80;99.90;;;18.11;96.63;99891.88;10291431;28;96449;-83
2022/09/09 06:58:43;;;;;;;0.30;0.30;;;19.90;99.90;;;18.23;96.46;99889.22;10274357;28;96509;-83
2022/09/09 07:03:50;;;;;;;0.20;0.20;;;20.00;99.90;;;18.31;97.01;99890.81;10305763;28;96629;-81
2022/09/09 07:08:56;;;;;;;0.55;0.20;;;20.10;99.90;;;18.33;96.09;99891.38;10289365;28;96576;-82
2022/09/09 07:14:00;;;;;;;0.30;0.20;;;20.10;99.90;;;18.32;95.29;99900.50;10305155;28;96650;-82
2022/09/09 07:19:04;;;;;;;0.30;0.20;;;20.10;99.90;;;18.33;95.42;99900.28;10288091;28;96778;-83
2022/09/09 07:24:09;;;;;;;0.40;0.30;;;20.10;99.90;;;18.46;95.39;99894.72;10287420;28;96628;-83
2022/09/09 07:29:16;;;;;;;0.47;0.37;;;20.20;99.90;;;18.64;95.73;99887.66;10288707;28;96453;-83
2022/09/09 07:34:22;;;;;;;0.20;0.20;;;20.40;99.90;;;18.72;94.56;99903.53;10290066;28;96359;-83
2022/09/09 07:39:25;;;;;;;0.43;0.30;;;20.50;99.90;;;18.91;93.72;99899.75;10286913;28;97949;-84
2022/09/09 07:44:28;;;;;;;0.30;0.22;;;20.70;99.90;;;19.16;93.39;99896.88;10310424;28;96525;-84
2022/09/09 07:49:32;;;;;;;0.30;0.17;;;21.10;99.90;;;19.52;90.58;99892.34;10295441;28;96655;-84
2022/09/09 07:54:35;;;;;;;0.55;0.30;;;21.50;99.90;;;19.80;88.70;99893.56;10308336;28;96641;-83
2022/09/09 07:59:38;;;;;;;0.30;0.20;;;21.80;99.90;;;20.02;89.11;99891.88;10309241;28;97163;-83
2022/09/09 08:04:40;;;;;;;0.20;0.20;;;22.00;99.90;;;20.12;85.53;99897.50;10294975;28;96524;-83
2022/09/09 08:09:43;;;;;;;0.22;0.20;;;22.10;99.90;;;20.23;84.97;99887.75;10290244;28;97513;-83
2022/09/09 08:14:46;;;;;;;0.30;0.28;;;22.20;99.90;;;20.33;85.11;99896.03;10309415;28;96750;-83
2022/09/09 08:19:49;;;;;;;0.25;0.15;;;22.30;99.90;;;20.42;83.31;99894.59;10325481;28;97599;-83
2022/09/09 08:24:53;;;;;;;0.22;0.20;;;22.40;99.90;;;20.52;82.82;99891.31;10292137;28;97283;-84
2022/09/09 08:29:56;;;;;;;0.17;0.17;;;22.40;99.90;;;20.64;81.79;99888.59;10293735;28;96948;-83
2022/09/09 08:34:59;;;;;;;0.30;0.20;;;22.50;99.90;;;20.74;80.76;99880.66;10292637;28;96709;-83
2022/09/09 08:40:03;;;;;;;0.20;0.10;;;22.60;99.90;;;20.87;79.32;99874.13;10293644;28;96526;-83
2022/09/09 08:45:49;;;;;;;0.73;0.30;;;22.80;99.90;;;21.08;79.32;99865.31;10287580;28;96659;-84
2022/09/09 08:50:52;;;;;;;0.32;0.30;;;22.90;99.90;;;21.35;78.76;99879.88;10293991;28;96593;-83
2022/09/09 08:55:59;;;;;;;0.35;0.22;;;23.20;99.90;;;21.54;78.33;99883.13;10291166;28;96585;-82
2022/09/09 09:01:26;;;;;;;0.20;0.10;;;23.40;99.90;;;21.73;75.89;99886.38;10294228;28;96775;-83
2022/09/09 09:06:38;;;;;;;0.82;0.30;;;23.60;99.90;;;21.86;73.55;99883.31;10307358;28;97362;-82
2022/09/09 09:11:54;;;;;;;0.85;0.40;;;23.80;99.90;;;21.85;72.23;99872.75;10307458;28;96939;-84
2022/09/09 09:17:06;;;;;;;0.73;0.32;;;23.80;99.90;;;21.83;70.10;99877.56;10269136;28;96887;-82
2022/09/09 09:22:19;;;;;;;0.40;0.30;;;23.80;99.90;;;22.04;72.74;99882.19;10287632;28;97519;-83
2022/09/09 09:27:42;;;;;;;0.20;0.10;;;24.00;99.90;;;22.27;70.38;99873.03;10291918;28;96600;-83
2022/09/09 09:33:11;;;;;;;0.22;0.20;;;24.20;99.90;;;22.42;70.50;99875.09;10292169;28;96707;-83
2022/09/09 09:38:24;;;;;;;0.32;0.22;;;24.40;99.90;;;22.43;67.28;99860.50;10291364;28;96601;-82
2022/09/09 09:43:54;;;;;;;0.57;0.38;;;24.50;99.70;;;22.47;66.99;99853.50;10291790;28;96749;-84
2022/09/09 09:49:05;;;;;;;0.30;0.22;;;24.50;99.20;;;22.59;67.09;99854.16;10291976;28;96470;-83
2022/09/09 09:54:16;;;;;;;0.30;0.13;;;24.60;98.90;;;22.80;66.26;99857.09;10289582;28;96733;-83
2022/09/09 09:59:23;;;;;;;0.30;0.25;;;24.80;98.50;;;22.95;64.42;99854.53;10291849;28;97792;-84
2022/09/09 10:04:41;;;;;;;0.10;0.10;;;24.90;97.60;;;23.06;66.83;99861.69;10292441;28;96485;-81
2022/09/09 10:09:44;;;;;;;0.35;0.20;;;25.10;97.30;;;23.32;67.36;99859.19;10297794;28;97417;-82
2022/09/09 10:15:38;;;;;;;0.38;0.20;;;25.30;97.10;;;23.64;65.80;99854.56;10292754;28;96419;-82
2022/09/09 10:21:00;;;;;;;0.40;0.20;;;25.60;94.80;;;23.87;63.27;99838.94;10285468;28;97118;-83
2022/09/09 10:26:22;;;;;;;0.10;0.10;;;25.80;95.50;;;23.91;59.29;99843.56;10290142;28;96572;-82
2022/09/09 10:31:56;;;;;;;0.13;0.10;;;26.00;94.20;;;24.11;61.95;99845.56;10288894;28;96600;-81
2022/09/09 10:37:00;;;;;;;0.20;0.13;;;26.20;92.80;;;24.50;61.55;99845.19;10305121;28;97492;-82
2022/09/09 10:42:14;;;;;;;0.10;0.10;;;26.50;93.00;;;24.83;57.94;99839.25;10289839;28;96638;-82
2022/09/09 10:47:38;;;;;;;0.20;0.20;;;27.00;92.40;;;24.94;53.94;99847.41;10288993;28;97042;-82
2022/09/09 10:53:08;;;;;;;0.05;0.05;;;27.30;90.10;;;25.11;56.41;99847.16;10285330;28;97342;-82
2022/09/09 10:58:27;;;;;;;0.20;0.15;;;27.50;90.00;;;25.67;53.44;99839.78;10249549;28;96697;-82
2022/09/09 11:03:33;;;;;;;0.30;0.20;;;28.10;86.10;;;26.17;53.20;99832.53;10304657;28;96703;-82
2022/09/09 11:08:39;;;;;;;0.10;0.10;;;28.80;84.90;;;26.66;50.41;99835.25;10287950;28;96750;-83
2022/09/09 11:14:17;;;;;;;0.13;0.13;;;29.30;83.60;;;27.29;46.89;99837.25;10288878;28;97035;-83
2022/09/09 11:19:35;;;;;;;0.52;0.10;;;29.90;79.60;;;27.92;47.97;99823.50;10296780;28;96509;-83
2022/09/09 11:24:45;;;;;;;3.67;1.45;;;30.50;78.40;;;28.36;41.38;99822.41;10276883;28;96608;-83
2022/09/09 11:30:26;;;;;;;2.50;0.47;;;30.60;68.70;;;28.46;44.04;99819.53;10302987;28;96668;-83
2022/09/09 11:36:10;;;;;;;3.53;1.08;;;30.30;66.80;;;28.32;41.28;99826.03;10309490;28;96796;-83
2022/09/09 11:41:15;;;;;;;0.55;0.28;;;30.10;66.30;;;27.96;41.91;99816.34;10294971;28;96622;-83
2022/09/09 11:46:36;;;;;;;0.60;0.20;;;29.90;62.70;;;27.33;41.25;99821.91;10295931;28;96506;-83
2022/09/09 11:51:39;;;;;;;0.30;0.20;;;29.20;60.20;;;26.87;42.00;99814.13;10295390;28;96628;-83
2022/09/09 11:56:44;;;;;;;0.28;0.17;;;28.60;61.20;;;26.61;42.76;99805.31;10295326;28;96707;-83
2022/09/09 12:02:11;;;;;;;0.10;0.10;;;28.30;62.10;;;26.42;44.00;99802.44;10293771;28;96680;-83
2022/09/09 12:07:33;;;;;;;0.30;0.20;;;28.20;62.10;;;26.14;44.29;99805.84;10289445;28;97659;-82
2022/09/09 12:12:38;;;;;;;0.17;0.17;;;27.90;63.20;;;25.75;43.87;99814.72;10266482;28;96608;-82
2022/09/09 12:17:53;;;;;;;0.32;0.22;;;27.50;61.90;;;25.45;43.95;99807.44;10295975;28;96373;-82
2022/09/09 12:23:17;;;;;;;0.35;0.10;;;27.20;62.20;;;25.47;44.93;99809.88;10286572;28;96629;-82
2022/09/09 12:28:50;;;;;;;0.43;0.17;;;27.20;64.40;;;25.60;44.48;99820.16;10277550;28;96609;-81
2022/09/09 12:33:53;;;;;;;0.10;0.08;;;27.30;63.60;;;25.57;43.99;99799.78;10302196;28;96646;-81
2022/09/09 12:39:10;;;;;;;0.00;0.00;;;27.30;62.40;;;25.66;44.09;99797.28;10289022;28;96496;-81
2022/09/09 12:44:13;;;;;;;0.10;0.10;;;27.30;63.40;;;25.67;42.49;99796.22;10310479;28;96901;-83
2022/09/09 12:49:38;;;;;;;0.10;0.10;;;27.40;62.60;;;25.55;43.35;99809.28;10291122;28;97400;-81
2022/09/09 12:54:53;;;;;;;0.22;0.10;;;27.40;62.50;;;25.56;45.46;99786.47;10285043;28;98327;-81
2022/09/09 13:00:08;;;;;;;0.20;0.20;;;27.40;63.90;;;25.66;44.97;99785.59;10311703;28;96896;-80
2022/09/09 13:05:38;;;;;;;0.20;0.10;;;27.40;63.70;;;25.71;45.09;99772.78;10290677;28;96470;-81
2022/09/09 13:10:46;;;;;;;;;;;27.50;63.90;;;25.77;43.43;99757.28;10267978;28;96606;-81
2022/09/09 13:16:08;;;;;;;0.10;0.03;;;27.50;63.40;;;25.63;43.10;99749.69;10259624;28;96471;-80
2022/09/09 13:21:11;;;;;;;0.10;0.10;;;27.50;63.20;;;25.53;43.65;99747.00;10315077;28;96939;-82
2022/09/09 13:26:27;;;;;;;0.20;0.10;;;27.30;63.10;;;25.46;43.88;99742.97;10276960;28;97347;-82
2022/09/09 13:31:33;;;;;;;0.10;0.08;;;27.30;63.50;;;25.33;43.78;99730.78;10281297;28;96667;-82
2022/09/09 13:36:36;;;;;;;0.08;0.00;;;27.20;63.60;;;25.24;44.27;99730.50;10289849;28;98433;-83
2022/09/09 13:41:45;;;;;;;0.20;0.10;;;27.10;63.30;;;25.16;43.10;99749.28;10273947;28;96688;-81
2022/09/09 13:46:48;;;;;;;0.00;0.00;;;27.10;62.70;;;25.14;43.91;99744.13;10278297;28;96656;-82
2022/09/09 13:51:53;;;;;;;0.20;0.10;;;27.10;62.90;;;25.15;43.90;99734.88;10289120;28;96869;-81
2022/09/09 13:56:57;;;;;;;0.05;0.05;;;27.10;63.20;;;25.15;43.28;99729.44;10284764;28;98923;-82
2022/09/09 14:02:01;;;;;;;0.00;0.00;;;27.10;63.20;;;25.19;45.45;99730.53;10290628;28;98205;-82
2022/09/09 14:07:04;;;;;;;0.40;0.10;;;27.10;63.40;;;25.22;44.64;99719.09;10271108;28;96656;-82
2022/09/09 14:12:12;;;;;;;0.10;0.10;;;27.20;63.60;;;25.31;43.59;99713.94;10306276;28;96507;-82
2022/09/09 14:17:15;;;;;;;0.08;0.08;;;27.30;63.30;;;25.41;43.62;99710.34;10275917;28;97606;-82
2022/09/09 14:22:17;;;;;;;0.08;0.08;;;27.30;63.10;;;25.49;42.91;99702.44;10292125;28;96367;-81
2022/09/09 14:27:20;;;;;;;0.10;0.10;;;27.40;62.50;;;25.50;42.02;99703.25;10292005;28;96560;-81
2022/09/09 14:32:23;;;;;;;0.30;0.10;;;27.40;61.10;;;25.39;42.18;99690.78;10290725;28;96679;-82
2022/09/09 14:37:27;;;;;;;0.15;0.10;;;27.30;61.40;;;25.31;42.61;99689.44;10306258;28;96457;-81
2022/09/09 14:42:31;;;;;;;0.20;0.10;;;27.20;61.30;;;25.25;43.85;99693.25;10257319;28;97558;-82
2022/09/09 14:47:34;;;;;;;0.10;0.10;;;27.10;61.70;;;25.17;44.00;99688.38;10289562;28;97365;-82
2022/09/09 14:52:37;;;;;;;0.00;0.00;;;27.00;61.50;;;25.08;43.00;99685.44;10285166;28;96668;-81
2022/09/09 14:57:40;;;;;;;0.10;0.10;;;26.90;60.80;;;24.95;42.58;99686.78;10275082;28;98609;-81
2022/09/09 15:02:42;;;;;;;0.45;0.22;;;26.80;61.30;;;24.88;44.02;99691.69;10287798;28;96614;-81
2022/09/09 15:07:45;;;;;;;0.38;0.20;;;26.70;62.00;;;24.81;43.23;99700.13;10288909;28;96743;-82
2022/09/09 15:12:48;;;;;;;0.20;0.00;;;26.70;60.60;;;24.78;41.64;99708.81;10303761;28;96650;-82
2022/09/09 15:17:51;;;;;;;0.08;0.00;;;26.60;58.10;;;24.77;43.22;99709.06;10280559;28;96542;-82
2022/09/09 15:22:53;;;;;;;0.20;0.10;;;26.50;60.80;;;24.80;42.01;99712.06;10288739;28;96520;-82
2022/09/09 15:27:56;;;;;;;0.00;0.00;;;26.60;59.80;;;24.80;43.89;99698.50;10290363;28;96515;-82
2022/09/09 15:32:59;;;;;;;0.00;0.00;;;26.60;60.60;;;24.79;45.03;99707.72;10295457;28;97487;-82
2022/09/09 15:38:04;;;;;;;0.10;0.10;;;26.60;60.90;;;24.78;45.36;99705.28;10289179;28;96654;-82
2022/09/09 15:43:09;;;;;;;0.17;0.10;;;26.60;61.20;;;24.69;43.39;99693.34;10289271;28;96646;-82
2022/09/09 15:48:12;;;;;;;0.10;0.10;;;26.60;61.20;;;24.79;44.69;99694.16;10288805;28;96580;-83
2022/09/09 15:53:15;;;;;;;0.20;0.10;;;26.70;61.40;;;25.04;43.99;99704.16;10289021;28;96666;-82
2022/09/09 15:58:19;;;;;;;0.13;0.08;;;27.00;60.80;;;25.04;44.78;99700.63;10280955;28;98026;-82
2022/09/09 16:03:21;;;;;;;0.00;0.00;;;27.00;61.00;;;24.89;44.13;99696.03;10300854;28;96728;-82
2022/09/09 16:08:24;;;;;;;0.10;0.10;;;26.90;60.70;;;24.71;45.91;99702.88;10298049;28;97431;-82
2022/09/09 16:13:27;;;;;;;0.08;0.03;;;26.60;61.50;;;24.52;47.62;99712.63;10294984;28;98055;-83
2022/09/09 16:18:51;;;;;;;0.00;0.00;;;26.40;62.10;;;24.26;48.75;99720.72;10283971;28;96661;-81
2022/09/09 16:23:54;;;;;;;0.43;0.28;;;26.20;62.70;;;24.05;50.09;99721.78;10290686;28;98587;-83
2022/09/09 16:29:01;;;;;;;0.15;0.00;;;25.80;63.50;;;23.77;51.18;99718.44;10278295;28;97565;-82
2022/09/09 16:34:05;;;;;;;0.10;0.05;;;25.60;64.80;;;23.56;52.36;99719.41;10277513;28;98660;-82
2022/09/09 16:39:16;;;;;;;0.22;0.13;;;25.40;65.90;;;23.38;53.64;99725.28;10282915;28;96555;-81
2022/09/09 16:44:19;;;;;;;0.10;0.10;;;25.20;67.00;;;23.20;54.65;99723.84;10286990;28;98345;-82
2022/09/09 16:49:22;;;;;;;0.10;0.10;;;25.00;67.80;;;23.00;54.98;99716.41;10277171;28;96685;-82
2022/09/09 16:54:26;;;;;;;0.20;0.13;;;24.80;68.40;;;22.85;55.81;99725.22;10272861;28;97700;-82
2022/09/09 16:59:31;;;;;;;0.28;0.28;;;24.60;69.00;;;22.67;56.78;99728.31;10289678;28;97479;-83
2022/09/09 17:04:34;;;;;;;4.88;0.73;;;24.40;70.10;;;22.45;57.10;99728.41;10278473;28;97912;-82
2022/09/09 17:09:37;;;;;;;0.38;0.30;;;24.20;70.80;;;22.28;57.82;99727.72;10276394;28;96715;-82
2022/09/09 17:14:40;;;;;;;0.73;0.20;;;24.00;71.40;;;22.09;57.54;99738.03;10279627;28;97046;-82
2022/09/09 17:19:42;;;;;;;0.10;0.10;;;23.80;71.70;;;21.91;57.78;99744.59;10279701;28;98299;-82
2022/09/09 17:24:46;;;;;;;0.77;0.40;;;23.60;71.90;;;21.77;58.17;99738.78;10277995;28;98687;-85
2022/09/09 17:29:49;;;;;;;0.68;0.30;;;23.50;72.20;;;21.62;58.28;99749.41;10287521;28;96771;-82
2022/09/09 17:34:52;;;;;;;0.28;0.20;;;23.30;72.70;;;21.47;58.72;99746.47;10280791;28;97004;-82
2022/09/09 17:39:55;;;;;;;0.20;0.20;;;23.20;73.40;;;21.35;59.42;99749.28;10286129;28;96706;-83
2022/09/09 17:44:58;;;;;;;0.43;0.20;;;23.10;74.00;;;21.16;60.03;99751.44;10289532;28;96850;-82
2022/09/09 17:50:01;;;;;;;1.58;0.50;;;22.80;74.70;;;20.99;59.23;99754.19;10284719;28;98585;-82
2022/09/09 17:55:06;;;;;;;31.90;0.93;;;22.70;74.70;;;20.88;60.24;99757.78;10272962;28;96731;-82
2022/09/09 18:00:10;;;;;;;0.20;0.10;;;22.60;74.90;;;20.80;61.00;99761.69;10281961;28;96976;-82
2022/09/09 18:05:13;;;;;;;0.60;0.35;;;22.50;75.50;;;20.69;61.11;99772.56;10319145;28;96837;-83
2022/09/09 18:10:16;;;;;;;0.30;0.20;;;22.40;76.10;;;20.60;61.20;99774.03;10268259;28;96629;-83
2022/09/09 18:15:19;;;;;;;0.55;0.30;;;22.30;76.30;;;20.57;60.93;99783.44;10290139;28;96634;-83
2022/09/09 18:20:43;;;;;;;0.40;0.30;;;22.30;76.50;;;20.51;60.93;99760.97;10305926;28;96666;-83
2022/09/09 18:25:46;;;;;;;0.35;0.20;;;22.20;76.70;;;20.46;61.12;99760.88;10278036;28;96950;-83
2022/09/09 18:30:48;;;;;;;0.55;0.35;;;22.20;77.20;;;20.41;61.16;99768.84;10283694;28;96925;-82
2022/09/09 18:35:52;;;;;;;3.92;0.30;;;22.00;77.20;;;20.39;61.38;99765.56;10285049;28;96627;-80
2022/09/09 18:40:55;;;;;;;0.50;0.22;;;22.00;77.20;;;20.36;61.59;99765.22;10298359;28;97445;-81
2022/09/09 18:46:03;;;;;;;0.52;0.30;;;22.00;77.60;;;20.28;61.67;99766.44;10310609;28;96655;-80
2022/09/09 18:51:09;;;;;;;0.30;0.30;;;21.90;77.60;;;20.25;62.04;99775.00;10305098;28;96695;-80
2022/09/09 18:56:12;;;;;;;0.60;0.30;;;21.90;77.60;;;20.20;62.56;99780.28;10290733;28;96728;-80
2022/09/09 19:01:15;;;;;;;0.55;0.20;;;21.90;77.90;;;20.12;62.92;99775.28;10254131;28;98488;-80
2022/09/09 19:06:22;;;;;;;0.60;0.40;;;21.80;78.10;;;20.00;62.66;99768.06;10259350;28;96745;-80
2022/09/09 19:11:27;;;;;;;1.35;0.60;;;21.70;78.40;;;19.95;63.02;99778.75;10274416;28;96898;-81
2022/09/09 19:16:33;;;;;;;6.25;1.00;;;21.60;78.60;;;19.87;63.66;99778.31;10260749;28;97360;-81
2022/09/09 19:21:39;;;;;;;0.57;0.47;;;21.60;78.90;;;19.76;64.78;99779.97;10283613;28;97286;-83
2022/09/09 19:26:48;;;;;;;0.88;0.68;;;21.50;79.90;;;19.64;65.43;99781.88;10297325;28;97576;-83
2022/09/09 19:31:54;;;;;;;0.82;0.50;;;21.40;80.70;;;19.53;65.98;99788.88;10279280;28;97964;-83
2022/09/09 19:37:16;;;;;;;0.40;0.20;;;21.30;81.30;;;19.43;66.76;99794.03;10267968;28;96614;-83
2022/09/09 19:42:20;;;;;;;0.88;0.57;;;21.10;82.00;;;19.33;67.35;99791.13;10295006;28;96585;-83
2022/09/09 19:47:23;;;;;;;0.70;0.50;;;21.00;82.60;;;19.23;67.36;99802.50;10263475;28;96549;-83
2022/09/09 19:52:26;;;;;;;0.57;0.30;;;20.90;83.10;;;19.16;68.32;99793.72;10309743;28;96820;-83
2022/09/09 19:57:29;;;;;;;0.95;0.60;;;20.80;84.30;;;19.12;68.73;99789.84;10296401;28;96578;-83
2022/09/09 20:02:32;;;;;;;0.93;0.55;;;20.80;85.40;;;19.11;69.83;99789.00;10295516;28;96687;-83
2022/09/09 20:07:35;;;;;;;1.30;0.75;;;20.70;85.80;;;19.15;70.68;99795.59;10285992;28;98049;-83
2022/09/09 20:12:38;;;;;;;1.23;0.75;;;20.80;86.40;;;19.22;71.34;99800.84;10292939;28;96520;-83
2022/09/09 20:17:41;;;;;;;1.23;0.80;;;20.80;87.50;;;19.24;72.39;99804.13;10281944;28;96667;-83
2022/09/09 20:22:44;;;;;;;1.27;0.90;;;20.80;88.50;;;19.30;73.00;99808.56;10269402;28;97128;-82
2022/09/09 20:27:47;;;;;;;1.10;0.98;;;20.90;89.80;;;19.34;73.89;99807.06;10298694;28;96588;-83
2022/09/09 20:32:50;;;;;;;2.03;1.02;;;20.90;90.30;;;19.37;74.46;99811.16;10297484;28;96617;-83
2022/09/09 20:37:53;;;;;;;1.80;1.10;;;20.90;90.80;;;19.37;75.51;99809.31;10279781;28;98267;-83
2022/09/09 20:42:56;;;;;;;1.27;0.90;;;21.00;91.40;;;19.41;76.12;99809.63;10287432;28;96679;-83
2022/09/09 20:47:59;;;;;;;3.13;1.50;;;21.00;92.20;;;19.40;76.65;99811.50;10314898;28;96657;-83
2022/09/09 20:53:03;;;;;;;2.47;1.67;;;21.00;92.30;;;19.44;77.03;99804.59;10284784;28;98224;-83
2022/09/09 20:58:06;;;;;;;2.38;1.33;;;21.00;92.50;;;19.46;77.40;99791.72;10292170;28;98140;-84
2022/09/09 21:03:08;;;;;;;2.60;1.50;;;21.10;92.90;;;19.46;77.69;99797.09;10293775;28;97481;-83
2022/09/09 21:08:11;;;;;;;2.00;1.38;;;21.10;93.40;;;19.42;78.61;99778.94;10296428;28;98262;-83
2022/09/09 21:13:15;;;;;;;1.83;1.27;;;21.00;94.20;;;19.38;79.13;99778.59;10292542;28;98036;-83
2022/09/09 21:18:18;;;;;;;1.92;1.40;;;21.00;94.60;;;19.35;79.91;99779.06;10278012;28;97487;-83